Tenoumaru — JM6583 — position and weather

sailwx.info

Track history (hours):
 
Tides and Currents Weather Stations Pressure Air Temp Water Temp Dewpoint Dewpoint Depression Visibility Wind Speed Wind Dir Waves Ship Positions

Tenoumaru

Last reported at 2018-Jun-23 03:27 UTC. Time now 2018-Jun-24 22:27 UTC.
Position N 35°16' E 139°46'.

Length 80 m; draft 5.6 m.

Type: Cargo ship. MMSI: 431600768.

Date/timePositionNaut miles runAvg speedWind from/ knotsBaromVisibWave heightAir tempDewpointWater temp
2018-Jun-23 03:27N 35°16' E 139°46'510.5
2018-Jun-23 03:00N 35°20' E 139°42'510.7
2018-Jun-23 02:30N 35°25' E 139°42'4 7.7
2018-Jun-23 02:00N 35°29' E 139°40'0 0.1
2018-Jun-23 01:30N 35°29' E 139°40'0 0.0
2018-Jun-23 01:00N 35°29' E 139°40'0 0.0
2018-Jun-23 00:30N 35°29' E 139°40'0 0.0
2018-Jun-22 23:59N 35°29' E 139°40'0 0.0
2018-Jun-22 23:30N 35°29' E 139°40'0 0.4
2018-Jun-22 23:00N 35°28' E 139°39'3 6.6
2018-Jun-22 22:30N 35°26' E 139°43'2 3.7
2018-Jun-22 22:00N 35°25' E 139°44'1 2.4
2018-Jun-22 21:30N 35°24' E 139°44'0 0.0
2018-Jun-22 21:00N 35°24' E 139°44'0 0.0
2018-Jun-22 20:30N 35°24' E 139°44'0 0.0
2018-Jun-22 20:00N 35°24' E 139°44'0 0.0
2018-Jun-22 19:30N 35°24' E 139°44'0 0.0
2018-Jun-22 19:00N 35°24' E 139°44'0 0.0
2018-Jun-22 18:30N 35°24' E 139°44'0 0.0
2018-Jun-22 18:00N 35°24' E 139°44'0 0.0
2018-Jun-22 17:30N 35°24' E 139°44'0 0.0
2018-Jun-22 17:00N 35°24' E 139°44'0 0.0
2018-Jun-22 16:30N 35°24' E 139°44'0 0.1
2018-Jun-22 16:00N 35°24' E 139°44'0 0.0
2018-Jun-22 15:30N 35°24' E 139°44'0 0.0
2018-Jun-22 15:00N 35°24' E 139°44'0 0.0
2018-Jun-22 14:30N 35°24' E 139°44'0 0.0
2018-Jun-22 14:00N 35°24' E 139°44'0 0.0
2018-Jun-22 13:30N 35°24' E 139°44'0 0.0
2018-Jun-22 13:00N 35°24' E 139°44'0 0.0
2018-Jun-22 12:30N 35°24' E 139°44'0 0.0
2018-Jun-22 12:00N 35°24' E 139°44'0 0.0
2018-Jun-22 11:30N 35°24' E 139°44'0 0.0
2018-Jun-22 11:00N 35°24' E 139°44'1 1.2
2018-Jun-22 10:30N 35°24' E 139°44'8 0.8
2018-Jun-22 00:17N 35°28' E 139°52'310.8
2018-Jun-22 00:00N 35°27' E 139°49'510.9
2018-Jun-21 23:30N 35°22' E 139°45'710.2
2018-Jun-21 22:50N 35°16' E 139°47'410.8
2018-Jun-21 22:29N 35°12' E 139°47'248 9.7
2018-Jun-20 21:00N 33°50' E 135°03'610.6
2018-Jun-20 20:27N 33°54' E 134°59'1210.9
2018-Jun-20 19:20N 34°03' E 134°49'  
2018-Jun-15 12:59N 35°15' E 139°46'611.8
2018-Jun-15 12:30N 35°20' E 139°42'611.8
2018-Jun-15 12:00N 35°26' E 139°43'4 7.4
2018-Jun-15 11:30N 35°30' E 139°44'1 0.2
2018-Jun-15 06:24N 35°31' E 139°44'2 4.7
2018-Jun-15 06:00N 35°31' E 139°46'3 5.4
2018-Jun-15 05:30N 35°29' E 139°49'0 0.0
2018-Jun-15 05:00N 35°29' E 139°49'0 0.1
2018-Jun-15 04:30N 35°29' E 139°49'4 0.3
2018-Jun-14 12:21N 35°30' E 139°54'410.6
2018-Jun-14 12:00N 35°28' E 139°51'510.3
2018-Jun-14 11:30N 35°25' E 139°47'510.2
2018-Jun-14 11:00N 35°20' E 139°44'5 9.9
2018-Jun-14 10:29N 35°15' E 139°47'249 9.4
2018-Jun-13 07:57N 33°50' E 135°03'510.9
2018-Jun-13 07:28N 33°54' E 134°59'1210.9
2018-Jun-13 06:22N 34°03' E 134°49'  
Track history (hours):
 
Tides and Currents Weather Stations Pressure Air Temp Water Temp Dewpoint Dewpoint Depression Visibility Wind Speed Wind Dir Waves Ship Positions

Tenoumaru

Last reported at 2018-Jun-23 03:27 UTC. Time now 2018-Jun-24 22:27 UTC.
Position N 35°16' E 139°46'.

Length 80 m; draft 5.6 m.

Type: Cargo ship. MMSI: 431600768.

Date/timePositionNaut miles runAvg speedWind from/ knotsBaromVisibWave heightAir tempDewpointWater temp
2018-Jun-23 03:27N 35°16' E 139°46'510.5
2018-Jun-23 03:00N 35°20' E 139°42'510.7
2018-Jun-23 02:30N 35°25' E 139°42'4 7.7
2018-Jun-23 02:00N 35°29' E 139°40'0 0.1
2018-Jun-23 01:30N 35°29' E 139°40'0 0.0
2018-Jun-23 01:00N 35°29' E 139°40'0 0.0
2018-Jun-23 00:30N 35°29' E 139°40'0 0.0
2018-Jun-22 23:59N 35°29' E 139°40'0 0.0
2018-Jun-22 23:30N 35°29' E 139°40'0 0.4
2018-Jun-22 23:00N 35°28' E 139°39'3 6.6
2018-Jun-22 22:30N 35°26' E 139°43'2 3.7
2018-Jun-22 22:00N 35°25' E 139°44'1 2.4
2018-Jun-22 21:30N 35°24' E 139°44'0 0.0
2018-Jun-22 21:00N 35°24' E 139°44'0 0.0
2018-Jun-22 20:30N 35°24' E 139°44'0 0.0
2018-Jun-22 20:00N 35°24' E 139°44'0 0.0
2018-Jun-22 19:30N 35°24' E 139°44'0 0.0
2018-Jun-22 19:00N 35°24' E 139°44'0 0.0
2018-Jun-22 18:30N 35°24' E 139°44'0 0.0
2018-Jun-22 18:00N 35°24' E 139°44'0 0.0
2018-Jun-22 17:30N 35°24' E 139°44'0 0.0
2018-Jun-22 17:00N 35°24' E 139°44'0 0.0
2018-Jun-22 16:30N 35°24' E 139°44'0 0.1
2018-Jun-22 16:00N 35°24' E 139°44'0 0.0
2018-Jun-22 15:30N 35°24' E 139°44'0 0.0
2018-Jun-22 15:00N 35°24' E 139°44'0 0.0
2018-Jun-22 14:30N 35°24' E 139°44'0 0.0
2018-Jun-22 14:00N 35°24' E 139°44'0 0.0
2018-Jun-22 13:30N 35°24' E 139°44'0 0.0
2018-Jun-22 13:00N 35°24' E 139°44'0 0.0
2018-Jun-22 12:30N 35°24' E 139°44'0 0.0
2018-Jun-22 12:00N 35°24' E 139°44'0 0.0
2018-Jun-22 11:30N 35°24' E 139°44'0 0.0
2018-Jun-22 11:00N 35°24' E 139°44'1 1.2
2018-Jun-22 10:30N 35°24' E 139°44'8 0.8
2018-Jun-22 00:17N 35°28' E 139°52'310.8
2018-Jun-22 00:00N 35°27' E 139°49'510.9
2018-Jun-21 23:30N 35°22' E 139°45'710.2
2018-Jun-21 22:50N 35°16' E 139°47'410.8
2018-Jun-21 22:29N 35°12' E 139°47'248 9.7
2018-Jun-20 21:00N 33°50' E 135°03'610.6
2018-Jun-20 20:27N 33°54' E 134°59'1210.9
2018-Jun-20 19:20N 34°03' E 134°49'  
2018-Jun-15 12:59N 35°15' E 139°46'611.8
2018-Jun-15 12:30N 35°20' E 139°42'611.8
2018-Jun-15 12:00N 35°26' E 139°43'4 7.4
2018-Jun-15 11:30N 35°30' E 139°44'1 0.2
2018-Jun-15 06:24N 35°31' E 139°44'2 4.7
2018-Jun-15 06:00N 35°31' E 139°46'3 5.4
2018-Jun-15 05:30N 35°29' E 139°49'0 0.0
2018-Jun-15 05:00N 35°29' E 139°49'0 0.1
2018-Jun-15 04:30N 35°29' E 139°49'4 0.3
2018-Jun-14 12:21N 35°30' E 139°54'410.6
2018-Jun-14 12:00N 35°28' E 139°51'510.3
2018-Jun-14 11:30N 35°25' E 139°47'510.2
2018-Jun-14 11:00N 35°20' E 139°44'5 9.9
2018-Jun-14 10:29N 35°15' E 139°47'249 9.4
2018-Jun-13 07:57N 33°50' E 135°03'510.9
2018-Jun-13 07:28N 33°54' E 134°59'1210.9
2018-Jun-13 06:22N 34°03' E 134°49'  

Dump ship's entire track history